< Typhoon 198106 1981 Season Typhoon 198108 >
Typhoon 198107 (LYNN)
General InformationTrack Information on Google MapsDetailed Wind InformationList of All Images || Disaster Info.ResourceGoogle EarthGE AnimationAtom FeedGeoJSON
Detalied Best Track (Time Zone = UTC)
Year Month Day Hour Lat. Long. Pressure (hPa) Wind (kt) Class Image Chart
1981 7 2 06 12.0 130.0 1004 0 2 Image Chart
1981 7 2 12 12.0 129.0 1004 0 2 Image Chart
1981 7 2 18 12.0 128.0 1004 0 2 Image Chart
1981 7 3 00 12.3 127.1 1000 0 2 Image Chart
1981 7 3 06 13.3 125.7 990 35 3 Image Chart
1981 7 3 12 14.0 124.3 990 35 3 Image Chart
1981 7 3 18 14.6 122.9 990 45 3 Image Chart
1981 7 4 00 15.0 122.0 996 50 4 Image Chart
1981 7 4 06 15.5 121.5 998 55 4 Image Chart
1981 7 4 12 16.2 120.0 998 55 4 Image Chart
1981 7 4 18 16.9 119.5 994 55 4 Image Chart
1981 7 5 00 17.5 118.5 990 45 3 Image Chart
1981 7 5 06 18.0 117.7 990 45 3 Image Chart
1981 7 5 12 18.9 116.5 990 45 3 Image Chart
1981 7 5 18 19.8 115.4 990 45 3 Image Chart
1981 7 6 00 20.3 114.7 985 50 4 Image Chart
1981 7 6 06 20.7 114.0 985 50 4 Image Chart
1981 7 6 12 21.1 113.5 985 55 4 Image Chart
1981 7 6 18 21.4 113.0 985 55 4 Image Chart
1981 7 7 00 21.9 112.4 990 40 3 Image Chart
1981 7 7 06 22.8 111.6 996 0 2 Image Chart
1981 7 7 12 23.5 110.5 998 0 2 Image Chart
1981 7 7 18 24.0 109.0 1000 0 2 Image Chart
Japan Meteorological Agency Best Track Data | Correction Date : 1992-10-21
< Typhoon 198106 1981 Season Typhoon 198108 >

Help